createdAt,value
2022-12-13T00:02:09.018Z,36.03
2022-12-13T00:04:36.731Z,35.10
2022-12-13T00:07:24.177Z,36.67
2022-12-13T00:10:06.218Z,40.03
2022-12-13T00:12:34.399Z,40.88
2022-12-13T00:15:01.350Z,37.42
2022-12-13T00:17:48.166Z,35.20
2022-12-13T00:20:53.180Z,38.05
2022-12-13T00:26:54.927Z,37.90
2022-12-13T00:29:21.793Z,32.38
2022-12-13T00:31:59.442Z,32.17
2022-12-13T00:34:28.476Z,33.58
2022-12-13T00:36:56.372Z,35.20
2022-12-13T00:39:23.293Z,33.50
2022-12-13T00:41:50.516Z,36.20
2022-12-13T00:44:19.902Z,33.58
2022-12-13T00:46:47.383Z,34.47
2022-12-13T00:49:14.384Z,31.90
2022-12-13T00:51:41.302Z,35.30
2022-12-13T00:54:08.372Z,38.38
2022-12-13T00:56:55.204Z,34.70
2022-12-13T00:59:37.203Z,31.63
2022-12-13T01:02:04.368Z,34.03
2022-12-13T01:04:31.502Z,33.85
2022-12-13T01:07:18.288Z,34.88
2022-12-13T01:10:21.188Z,36.22
2022-12-13T01:13:22.217Z,39.65
2022-12-13T01:16:05.243Z,40.97
2022-12-13T01:18:53.204Z,35.92
2022-12-13T01:21:54.190Z,39.15
2022-12-13T01:24:44.488Z,36.40
2022-12-13T01:27:11.659Z,34.33
2022-12-13T01:29:38.907Z,40.80
2022-12-13T01:32:05.998Z,38.45
2022-12-13T01:34:32.862Z,37.63
2022-12-13T01:37:21.211Z,35.53
2022-12-13T01:40:15.787Z,33.80
2022-12-13T01:42:43.829Z,36.75
2022-12-13T01:45:23.175Z,35.00
2022-12-13T01:47:56.761Z,34.90
2022-12-13T01:50:32.677Z,35.58
2022-12-13T01:53:00.489Z,38.25
2022-12-13T01:55:32.064Z,34.78
2022-12-13T01:58:03.047Z,38.13
2022-12-13T02:00:30.008Z,37.25
2022-12-13T02:02:59.223Z,36.22
2022-12-13T02:05:36.349Z,38.42
2022-12-13T02:08:27.439Z,35.97
2022-12-13T02:11:09.986Z,32.60
2022-12-13T02:13:38.867Z,39.70
2022-12-13T02:16:23.025Z,38.10
2022-12-13T02:22:42.528Z,36.22
2022-12-13T02:25:28.834Z,36.92
2022-12-13T02:28:35.135Z,32.28
2022-12-13T02:31:11.199Z,34.05
2022-12-13T02:33:43.088Z,35.83
2022-12-13T02:36:42.284Z,34.10
2022-12-13T02:39:49.289Z,34.53
2022-12-13T02:42:56.790Z,33.58
2022-12-13T02:45:49.061Z,35.25
2022-12-13T02:48:24.205Z,36.40
2022-12-13T02:50:52.735Z,39.47
2022-12-13T02:53:21.630Z,37.45
2022-12-13T02:55:48.494Z,34.72
2022-12-13T02:58:27.953Z,38.33
2022-12-13T03:01:27.933Z,40.05
2022-12-13T03:04:11.416Z,35.53
2022-12-13T03:07:23.250Z,38.33
2022-12-13T03:13:39.316Z,35.42
2022-12-13T03:16:30.297Z,34.92
2022-12-13T03:19:21.261Z,32.92
2022-12-13T03:22:23.262Z,32.97
2022-12-13T03:25:04.102Z,33.95
2022-12-13T03:27:31.131Z,33.60
2022-12-13T03:30:00.078Z,30.00
2022-12-13T03:32:27.052Z,33.33
2022-12-13T03:35:00.899Z,29.70
2022-12-13T03:39:55.668Z,34.83
2022-12-13T03:42:23.114Z,30.65
2022-12-13T03:44:50.101Z,28.17
2022-12-13T03:47:17.514Z,32.47
2022-12-13T03:49:44.472Z,35.80
2022-12-13T03:52:11.440Z,30.00
2022-12-13T03:54:38.366Z,30.63
2022-12-13T03:57:32.300Z,33.63
2022-12-13T04:00:33.304Z,35.47
2022-12-13T04:03:34.271Z,32.75
2022-12-13T04:06:35.289Z,32.30
2022-12-13T04:09:44.309Z,31.85
2022-12-13T04:12:56.357Z,31.13
2022-12-13T04:15:27.822Z,33.65
2022-12-13T04:17:54.881Z,31.13
2022-12-13T04:20:42.285Z,31.20
2022-12-13T04:23:23.361Z,30.33
2022-12-13T04:25:50.600Z,31.42
2022-12-13T04:28:21.908Z,34.15
2022-12-13T04:30:53.476Z,32.17
2022-12-13T04:33:24.756Z,33.00
2022-12-13T04:35:51.876Z,32.38
2022-12-13T04:38:19.053Z,33.53
2022-12-13T04:40:46.501Z,29.98
2022-12-13T04:43:13.456Z,32.08
2022-12-13T04:45:40.759Z,29.67
2022-12-13T04:48:08.346Z,31.42
2022-12-13T04:50:35.276Z,31.70
2022-12-13T04:53:02.274Z,32.58
2022-12-13T04:55:29.171Z,34.20
2022-12-13T04:58:21.354Z,32.15
2022-12-13T05:01:24.319Z,29.77
2022-12-13T05:04:32.129Z,31.77
2022-12-13T05:07:26.439Z,33.83
2022-12-13T05:10:07.588Z,28.98
2022-12-13T05:12:34.710Z,30.73
2022-12-13T05:15:02.412Z,31.10
2022-12-13T05:17:29.565Z,31.45
2022-12-13T05:20:17.320Z,33.90
2022-12-13T05:22:58.642Z,31.33
2022-12-13T05:25:25.836Z,27.85
2022-12-13T05:27:57.010Z,30.63
2022-12-13T05:30:24.131Z,29.98
2022-12-13T05:32:50.960Z,34.08
2022-12-13T05:35:23.423Z,35.00
2022-12-13T05:37:54.089Z,31.35
2022-12-13T05:40:27.353Z,30.45
2022-12-13T05:43:01.547Z,29.77
2022-12-13T05:45:30.079Z,32.30
2022-12-13T05:47:56.973Z,29.75
2022-12-13T05:50:24.141Z,30.45
2022-12-13T05:52:51.173Z,30.52
2022-12-13T05:55:18.448Z,31.70
2022-12-13T05:58:05.408Z,30.52
2022-12-13T06:01:22.433Z,28.75
2022-12-13T06:04:23.557Z,31.15
2022-12-13T06:07:25.368Z,31.00
2022-12-13T06:10:34.591Z,29.90
2022-12-13T06:13:21.674Z,31.75
2022-12-13T06:16:25.438Z,31.75
2022-12-13T06:19:26.332Z,32.03
2022-12-13T06:22:27.337Z,32.00
2022-12-13T06:24:57.453Z,30.80
2022-12-13T06:27:24.500Z,34.15
2022-12-13T06:29:51.280Z,32.08
2022-12-13T06:32:18.376Z,32.58
2022-12-13T06:35:28.475Z,33.47
2022-12-13T06:38:06.020Z,29.83
2022-12-13T06:40:39.710Z,32.67
2022-12-13T06:43:06.656Z,30.50
2022-12-13T06:45:33.628Z,33.95
2022-12-13T06:48:22.363Z,31.77
2022-12-13T06:51:23.353Z,33.05
2022-12-13T06:54:34.377Z,34.88
2022-12-13T06:57:19.834Z,30.83
2022-12-13T06:59:47.639Z,33.80
2022-12-13T07:02:25.154Z,31.15
2022-12-13T07:05:06.375Z,31.67
2022-12-13T07:08:07.442Z,28.25
2022-12-13T07:10:48.079Z,32.60
2022-12-13T07:13:17.184Z,30.65
2022-12-13T07:16:06.403Z,30.10
2022-12-13T07:18:46.914Z,30.55
2022-12-13T07:21:21.637Z,29.98
2022-12-13T07:24:09.374Z,33.05
2022-12-13T07:26:49.946Z,30.98
2022-12-13T07:29:22.147Z,32.40
2022-12-13T07:31:50.096Z,29.83
2022-12-13T07:34:37.375Z,30.00
2022-12-13T07:37:30.133Z,31.10
2022-12-13T07:40:03.907Z,31.35
2022-12-13T07:42:51.377Z,35.05
2022-12-13T07:45:32.862Z,30.13
2022-12-13T07:48:04.364Z,32.95
2022-12-13T08:18:35.731Z,30.80
2022-12-13T08:21:54.527Z,29.60
2022-12-13T08:24:53.463Z,32.08
2022-12-13T08:28:07.866Z,30.50
2022-12-13T08:33:47.036Z,30.13
2022-12-13T08:36:20.354Z,30.92
2022-12-13T08:38:47.512Z,31.35
2022-12-13T08:41:17.591Z,30.23
2022-12-13T08:43:57.239Z,31.10
2022-12-13T08:46:25.579Z,31.10
2022-12-13T08:49:19.880Z,30.27
2022-12-13T08:52:28.699Z,30.25
2022-12-13T08:55:33.609Z,30.50
2022-12-13T08:58:14.647Z,31.63
2022-12-13T09:00:48.597Z,31.35
2022-12-13T09:03:25.946Z,32.75
2022-12-13T09:06:00.789Z,31.27
2022-12-13T09:08:52.336Z,28.30
2022-12-13T09:11:54.544Z,31.08
2022-12-13T09:14:46.696Z,30.77
2022-12-13T09:17:24.219Z,29.25
2022-12-13T09:19:58.886Z,27.77
2022-12-13T09:22:33.059Z,30.98
2022-12-13T09:25:24.628Z,31.70
2022-12-13T09:28:14.117Z,29.17
2022-12-13T09:35:03.505Z,27.23
2022-12-13T09:37:31.422Z,31.00
2022-12-13T09:39:59.172Z,28.98
2022-12-13T09:43:04.542Z,28.00
2022-12-13T09:45:44.212Z,32.15
2022-12-13T09:48:22.183Z,30.05
2022-12-13T09:51:43.137Z,30.25
2022-12-13T09:54:19.099Z,27.90
2022-12-13T09:56:51.303Z,28.88
2022-12-13T09:59:28.495Z,32.20
2022-12-13T10:02:02.913Z,32.05
2022-12-13T10:04:33.224Z,31.02
2022-12-13T10:07:38.512Z,31.58
2022-12-13T10:10:19.985Z,30.30
2022-12-13T10:12:55.425Z,24.92
2022-12-13T10:15:24.774Z,29.30
2022-12-13T10:17:55.210Z,27.50
2022-12-13T10:20:29.178Z,27.10
2022-12-13T10:23:52.519Z,29.20
2022-12-13T10:26:41.551Z,25.83
2022-12-13T10:32:37.386Z,26.65
2022-12-13T10:35:28.317Z,27.98
2022-12-13T10:37:58.628Z,25.52
2022-12-13T10:40:31.943Z,27.70
2022-12-13T10:43:21.136Z,28.52
2022-12-13T10:46:01.931Z,24.40
2022-12-13T10:48:49.623Z,24.27
2022-12-13T10:51:40.053Z,25.73
2022-12-13T10:54:38.535Z,23.77
2022-12-13T10:57:18.843Z,24.85
2022-12-13T10:59:51.130Z,26.55
2022-12-13T11:02:32.900Z,24.98
2022-12-13T11:05:42.813Z,25.95
2022-12-13T11:08:44.614Z,25.88
2022-12-13T11:11:30.453Z,25.27
2022-12-13T11:14:03.264Z,28.90
2022-12-13T11:16:40.823Z,25.52
2022-12-13T11:19:20.457Z,25.50
2022-12-13T11:21:50.899Z,25.10
2022-12-13T11:24:44.609Z,24.98
2022-12-13T11:27:45.026Z,24.08
2022-12-13T11:30:39.492Z,24.30
2022-12-13T11:33:32.910Z,24.05
2022-12-13T11:36:36.832Z,27.15
2022-12-13T11:39:43.166Z,27.00
2022-12-13T11:42:29.901Z,25.83
2022-12-13T11:45:23.508Z,25.73
2022-12-13T11:48:04.837Z,25.97
2022-12-13T11:50:58.674Z,25.23
2022-12-13T11:54:14.596Z,26.15
2022-12-13T11:57:19.933Z,25.30
2022-12-13T11:59:55.147Z,24.60
2022-12-13T12:02:39.526Z,29.80
2022-12-13T12:05:19.526Z,24.95
2022-12-13T12:08:31.978Z,24.10
2022-12-13T12:11:24.573Z,28.55
2022-12-13T12:14:35.613Z,25.08
2022-12-13T12:17:50.584Z,22.77
2022-12-13T12:25:26.818Z,20.40
2022-12-13T12:28:20.658Z,23.98
2022-12-13T12:31:16.130Z,19.80
2022-12-13T12:33:43.401Z,23.17
2022-12-13T12:36:51.221Z,25.23
2022-12-13T12:39:41.997Z,23.75
2022-12-13T12:43:03.675Z,22.20
2022-12-13T12:46:21.942Z,24.17
2022-12-13T12:50:11.765Z,24.40
2022-12-13T12:53:24.785Z,21.80
2022-12-13T12:56:19.835Z,21.52
2022-12-13T12:59:22.508Z,24.10
2022-12-13T13:02:16.259Z,24.25
2022-12-13T13:04:57.440Z,23.20
2022-12-13T13:07:53.566Z,19.77
2022-12-13T13:10:34.352Z,21.75
2022-12-13T13:19:16.589Z,18.73
2022-12-13T13:22:01.436Z,19.92
2022-12-13T13:24:31.348Z,19.88
2022-12-13T13:27:10.407Z,21.33
2022-12-13T13:29:43.395Z,20.08
2022-12-13T13:32:39.611Z,21.38
2022-12-13T13:35:47.434Z,21.40
2022-12-13T13:38:52.481Z,20.88
2022-12-13T13:41:56.481Z,20.80
2022-12-13T13:45:08.563Z,20.63
2022-12-13T13:48:25.664Z,19.85
2022-12-13T14:10:19.118Z,17.70
2022-12-13T14:13:30.750Z,16.67
2022-12-13T14:16:54.693Z,15.88
2022-12-13T14:20:22.174Z,14.75
2022-12-13T14:23:00.073Z,14.75
2022-12-13T14:25:51.975Z,16.55
2022-12-13T14:28:32.761Z,16.45
2022-12-13T14:31:00.934Z,17.70
2022-12-13T14:33:29.866Z,16.20
2022-12-13T14:36:00.483Z,17.00
2022-12-13T14:38:30.808Z,16.17
2022-12-13T14:41:17.700Z,17.20
2022-12-13T14:44:34.733Z,17.65
2022-12-13T14:47:35.210Z,17.45
2022-12-13T14:50:22.660Z,17.73
2022-12-13T14:53:45.689Z,17.52
2022-12-13T14:56:46.653Z,17.98
2022-12-13T14:59:50.435Z,16.63
2022-12-13T15:03:04.795Z,17.33
2022-12-13T15:06:11.679Z,19.77
2022-12-13T15:09:13.633Z,18.45
2022-12-13T15:12:24.442Z,17.73
2022-12-13T15:15:37.745Z,17.75
2022-12-13T15:18:39.663Z,19.17
2022-12-13T15:23:59.277Z,18.52
2022-12-13T15:26:34.313Z,19.85
2022-12-13T15:29:20.343Z,19.63
2022-12-13T15:32:19.884Z,18.77
2022-12-13T15:34:51.082Z,17.15
2022-12-13T15:37:32.992Z,18.73
2022-12-13T15:40:07.146Z,18.83
2022-12-13T15:42:39.213Z,19.20
2022-12-13T15:45:17.661Z,18.45
2022-12-13T15:47:47.559Z,20.30
2022-12-13T15:50:35.773Z,17.98
2022-12-13T15:53:07.601Z,17.55
2022-12-13T15:55:37.443Z,18.98
2022-12-13T15:58:26.916Z,17.08
2022-12-13T16:00:54.573Z,18.48
2022-12-13T16:03:26.982Z,19.65
2022-12-13T16:06:16.175Z,18.75
2022-12-13T16:09:19.023Z,18.60
2022-12-13T16:12:02.139Z,17.05
2022-12-13T16:14:54.665Z,19.58
2022-12-13T16:18:26.756Z,21.02
2022-12-13T16:21:05.131Z,21.60
2022-12-13T16:23:33.002Z,21.67
2022-12-13T16:26:04.307Z,18.95
2022-12-13T16:31:13.335Z,19.65
2022-12-13T16:33:41.488Z,20.65
2022-12-13T16:36:25.713Z,25.30
2022-12-13T16:39:30.386Z,23.55
2022-12-13T16:42:30.720Z,23.23
2022-12-13T16:48:22.890Z,24.08
2022-12-13T16:51:06.280Z,17.77
2022-12-13T16:53:34.003Z,19.92
2022-12-13T16:56:03.955Z,19.10
2022-12-13T16:58:31.719Z,22.33
2022-12-13T17:01:03.188Z,27.90
2022-12-13T17:03:31.269Z,24.80
2022-12-13T17:05:59.338Z,30.92
2022-12-13T17:08:46.735Z,24.05
2022-12-13T17:11:48.761Z,27.33
2022-12-13T17:14:51.872Z,35.67
2022-12-13T17:24:32.304Z,26.10
2022-12-13T17:26:59.964Z,27.60
2022-12-13T17:29:46.744Z,26.70
2022-12-13T17:32:28.480Z,22.83
2022-12-13T17:34:56.059Z,22.83
2022-12-13T17:37:23.215Z,21.80
2022-12-13T17:39:50.335Z,27.70
2022-12-13T17:42:37.704Z,24.90
2022-12-13T17:45:19.855Z,30.17
2022-12-13T17:47:47.307Z,26.83
2022-12-13T17:50:15.383Z,27.13
2022-12-13T17:52:42.443Z,28.17
2022-12-13T17:55:14.899Z,26.48
2022-12-13T17:57:47.165Z,30.02
2022-12-13T18:00:14.871Z,25.88
2022-12-13T18:02:43.056Z,24.98
2022-12-13T18:05:43.749Z,24.80
2022-12-13T18:08:52.811Z,27.17
2022-12-13T18:11:34.612Z,22.38
2022-12-13T18:14:14.726Z,27.88
2022-12-13T18:17:15.770Z,26.23
2022-12-13T18:20:16.836Z,25.25
2022-12-13T18:22:47.005Z,23.45
2022-12-13T18:25:18.578Z,28.10
2022-12-13T18:27:47.326Z,25.67
2022-12-13T18:30:14.607Z,27.58
2022-12-13T18:33:01.811Z,26.98
2022-12-13T18:36:02.724Z,24.05
2022-12-13T18:39:03.806Z,23.83
2022-12-13T18:41:44.661Z,26.45
2022-12-13T18:44:13.733Z,29.25
2022-12-13T18:46:45.712Z,23.27
2022-12-13T18:49:33.818Z,26.23
2022-12-13T18:52:14.527Z,23.92
2022-12-13T18:54:41.704Z,28.05
2022-12-13T18:57:08.751Z,26.80
2022-12-13T18:59:55.742Z,32.10
2022-12-13T19:02:36.491Z,27.02
2022-12-13T19:05:03.652Z,28.17
2022-12-13T19:07:50.774Z,25.90
2022-12-13T19:10:31.353Z,30.45
2022-12-13T19:12:58.286Z,31.25
2022-12-13T19:15:47.924Z,32.92
2022-12-13T19:18:28.595Z,32.90
2022-12-13T19:20:55.827Z,27.02
2022-12-13T19:23:23.241Z,26.83
2022-12-13T19:25:50.959Z,30.92
2022-12-13T19:28:19.868Z,28.77
2022-12-13T19:31:06.873Z,27.52
2022-12-13T19:34:09.763Z,26.35
2022-12-13T19:36:50.371Z,27.08
2022-12-13T19:42:38.468Z,25.70
2022-12-13T19:45:05.981Z,28.77
2022-12-13T19:47:32.984Z,28.27
2022-12-13T19:49:59.973Z,27.13
2022-12-13T19:52:46.811Z,26.73
2022-12-13T19:55:28.179Z,25.80
2022-12-13T19:57:55.168Z,27.27
2022-12-13T20:00:42.852Z,28.75
2022-12-13T20:03:51.795Z,26.95
2022-12-13T20:06:52.790Z,23.40
2022-12-13T20:09:33.351Z,26.58
2022-12-13T20:12:00.401Z,27.17
2022-12-13T20:14:48.841Z,26.38
2022-12-13T20:17:29.656Z,23.77
2022-12-13T20:19:56.970Z,26.65
2022-12-13T20:22:26.410Z,27.77
2022-12-13T20:24:53.351Z,27.30
2022-12-13T20:27:20.746Z,26.40
2022-12-13T20:29:49.383Z,22.80
2022-12-13T20:32:36.788Z,27.60
2022-12-13T20:35:54.202Z,25.35
2022-12-13T20:38:52.299Z,24.67
2022-12-13T20:41:35.168Z,25.88
2022-12-13T20:44:04.960Z,25.83
2022-12-13T20:46:32.306Z,25.52
2022-12-13T20:49:02.243Z,26.05
2022-12-13T20:51:51.810Z,28.58
2022-12-13T20:54:32.596Z,25.10
2022-12-13T20:56:59.756Z,23.15
2022-12-13T20:59:26.956Z,26.45
2022-12-13T21:01:53.932Z,27.05
2022-12-13T21:04:21.035Z,28.10
2022-12-13T21:07:08.819Z,40.80
2022-12-13T21:09:49.500Z,26.65
2022-12-13T21:12:36.868Z,26.58
2022-12-13T21:15:37.851Z,25.90
2022-12-13T21:18:19.470Z,27.25
2022-12-13T21:21:08.875Z,31.35
2022-12-13T21:23:49.524Z,32.83
2022-12-13T21:26:16.976Z,34.45
2022-12-13T21:28:44.220Z,33.47
2022-12-13T21:31:13.172Z,32.97
2022-12-13T21:33:42.683Z,32.97
2022-12-13T21:36:24.735Z,30.67
2022-12-13T21:38:54.635Z,29.88
2022-12-13T21:41:22.698Z,32.55
2022-12-13T21:43:50.763Z,35.45
2022-12-13T21:46:25.988Z,37.08
2022-12-13T21:48:58.513Z,31.65
2022-12-13T21:51:27.976Z,30.55
2022-12-13T21:53:56.074Z,35.42
2022-12-13T21:56:47.049Z,32.85
2022-12-13T21:59:19.974Z,32.63
2022-12-13T22:02:25.867Z,30.13
2022-12-13T22:04:55.285Z,30.00
2022-12-13T22:07:48.212Z,30.08
2022-12-13T22:11:08.871Z,28.80
2022-12-13T22:14:09.859Z,27.05
2022-12-13T22:16:50.568Z,31.73
2022-12-13T22:19:18.193Z,31.70
2022-12-13T22:22:04.854Z,33.80
2022-12-13T22:24:53.223Z,30.17
2022-12-13T22:27:41.899Z,28.30
2022-12-13T22:30:22.373Z,29.63
2022-12-13T22:32:49.348Z,29.60
2022-12-13T22:35:16.342Z,28.17
2022-12-13T22:38:03.896Z,30.00
2022-12-13T22:40:44.624Z,29.35
2022-12-13T22:43:13.802Z,28.88
2022-12-13T22:45:44.538Z,27.52
2022-12-13T22:48:31.869Z,33.08
2022-12-13T22:51:16.964Z,30.13
2022-12-13T22:53:45.623Z,34.83
2022-12-13T22:56:15.621Z,32.67
2022-12-13T22:59:10.873Z,29.90
2022-12-13T23:01:54.310Z,28.85
2022-12-13T23:04:23.797Z,27.70
2022-12-13T23:07:10.890Z,31.40
2022-12-13T23:09:51.504Z,30.25
2022-12-13T23:12:56.897Z,27.30
2022-12-13T23:15:57.868Z,26.92
2022-12-13T23:18:38.471Z,28.70
2022-12-13T23:21:05.473Z,28.77
2022-12-13T23:23:32.328Z,29.27
2022-12-13T23:26:10.782Z,27.20
2022-12-13T23:28:58.865Z,27.30
2022-12-13T23:31:42.139Z,27.73
2022-12-13T23:34:35.912Z,31.10
2022-12-13T23:37:16.667Z,29.08
2022-12-13T23:39:44.024Z,26.40
2022-12-13T23:42:10.950Z,30.13
2022-12-13T23:44:57.914Z,26.65
2022-12-13T23:47:38.534Z,31.85
2022-12-13T23:50:06.133Z,29.38
2022-12-13T23:52:33.032Z,29.85
2022-12-13T23:55:00.450Z,28.67
2022-12-13T23:57:27.425Z,29.63
2022-12-13T23:59:54.341Z,30.20
